createdAt,value
2022-08-19T00:01:59.423Z,11.57
2022-08-19T00:04:30.042Z,11.90
2022-08-19T00:06:57.194Z,11.48
2022-08-19T00:09:24.691Z,11.18
2022-08-19T00:11:52.140Z,12.55
2022-08-19T00:14:19.967Z,11.73
2022-08-19T00:16:48.588Z,12.00
2022-08-19T00:19:16.124Z,11.77
2022-08-19T00:21:43.167Z,11.93
2022-08-19T00:24:11.970Z,11.05
2022-08-19T00:26:39.018Z,12.35
2022-08-19T00:29:07.515Z,11.68
2022-08-19T00:31:34.393Z,12.13
2022-08-19T00:34:01.206Z,11.77
2022-08-19T00:36:29.452Z,11.88
2022-08-19T00:38:56.416Z,12.38
2022-08-19T00:41:24.416Z,13.43
2022-08-19T00:44:09.059Z,13.07
2022-08-19T00:46:37.613Z,13.73
2022-08-19T00:49:17.815Z,14.63
2022-08-19T00:51:46.749Z,13.65
2022-08-19T00:54:13.521Z,13.60
2022-08-19T00:56:41.633Z,14.90
2022-08-19T00:59:10.024Z,14.40
2022-08-19T01:01:42.116Z,13.95
2022-08-19T01:04:09.105Z,13.77
2022-08-19T01:06:38.326Z,15.85
2022-08-19T01:09:05.936Z,16.00
2022-08-19T01:11:35.877Z,15.02
2022-08-19T01:14:02.789Z,15.10
2022-08-19T01:16:30.905Z,15.68
2022-08-19T01:18:57.607Z,15.40
2022-08-19T01:21:35.653Z,17.15
2022-08-19T01:24:02.229Z,15.32
2022-08-19T01:26:29.166Z,17.08
2022-08-19T01:29:01.031Z,15.85
2022-08-19T01:31:33.090Z,15.68
2022-08-19T01:34:00.928Z,16.15
2022-08-19T01:36:30.908Z,15.13
2022-08-19T01:38:59.079Z,16.67
2022-08-19T01:41:26.134Z,16.27
2022-08-19T01:44:13.682Z,17.45
2022-08-19T01:46:41.221Z,17.90
2022-08-19T01:49:09.013Z,17.63
2022-08-19T01:51:39.883Z,19.38
2022-08-19T01:56:33.972Z,21.70
2022-08-19T01:59:04.212Z,21.83
2022-08-19T02:01:35.594Z,21.45
2022-08-19T02:04:02.673Z,22.00
2022-08-19T02:06:29.436Z,20.85
2022-08-19T02:08:57.392Z,20.75
2022-08-19T02:11:34.722Z,22.00
2022-08-19T02:14:03.303Z,20.73
2022-08-19T02:16:31.248Z,19.80
2022-08-19T02:19:01.214Z,19.38
2022-08-19T02:21:28.531Z,20.80
2022-08-19T02:23:56.252Z,20.98
2022-08-19T02:26:23.124Z,22.15
2022-08-19T02:28:49.651Z,23.42
2022-08-19T02:31:21.802Z,24.80
2022-08-19T02:33:48.815Z,24.30
2022-08-19T02:36:21.207Z,23.52
2022-08-19T02:38:54.686Z,23.23
2022-08-19T02:41:32.661Z,22.58
2022-08-19T02:44:29.534Z,23.63
2022-08-19T02:46:48.892Z,26.40
2022-08-19T02:49:18.902Z,26.02
2022-08-19T02:51:46.876Z,26.63
2022-08-19T02:54:14.765Z,28.10
2022-08-19T02:56:42.961Z,29.30
2022-08-19T02:59:11.240Z,29.35
2022-08-19T03:01:41.358Z,33.58
2022-08-19T03:04:10.083Z,35.15
2022-08-19T03:06:38.566Z,34.88
2022-08-19T03:09:05.125Z,36.50
2022-08-19T03:11:32.967Z,39.22
2022-08-19T03:14:00.989Z,38.63
2022-08-19T03:16:29.040Z,40.20
2022-08-19T03:19:02.454Z,42.35
2022-08-19T03:21:31.716Z,42.50
2022-08-19T03:24:00.657Z,48.75
2022-08-19T03:26:27.432Z,50.53
2022-08-19T03:28:58.020Z,52.55
2022-08-19T03:34:15.728Z,51.17
2022-08-19T03:36:42.367Z,51.08
2022-08-19T03:39:09.421Z,53.25
2022-08-19T03:41:44.330Z,54.55
2022-08-19T03:44:16.835Z,51.13
2022-08-19T03:46:46.877Z,55.65
2022-08-19T03:49:13.936Z,51.50
2022-08-19T03:51:42.899Z,49.90
2022-08-19T03:54:11.814Z,49.80
2022-08-19T03:56:40.035Z,50.35
2022-08-19T03:59:09.189Z,50.03
2022-08-19T04:01:36.160Z,53.15
2022-08-19T04:04:03.424Z,51.15
2022-08-19T04:06:34.881Z,51.80
2022-08-19T04:09:03.583Z,54.03
2022-08-19T04:11:43.490Z,53.53
2022-08-19T04:14:13.657Z,54.17
2022-08-19T04:16:40.496Z,52.97
2022-08-19T04:19:07.457Z,51.63
2022-08-19T04:21:34.594Z,50.17
2022-08-19T04:24:01.637Z,51.35
2022-08-19T04:26:34.784Z,52.55
2022-08-19T04:29:04.199Z,53.35
2022-08-19T04:31:33.486Z,51.58
2022-08-19T04:34:01.313Z,51.88
2022-08-19T04:36:30.986Z,54.85
2022-08-19T04:38:59.707Z,56.63
2022-08-19T04:41:45.161Z,59.10
2022-08-19T04:44:12.206Z,61.30
2022-08-19T04:46:39.988Z,60.40
2022-08-19T04:49:10.471Z,63.40
2022-08-19T04:51:42.937Z,63.05
2022-08-19T04:54:10.089Z,62.67
2022-08-19T04:56:36.635Z,64.18
2022-08-19T04:59:05.835Z,64.43
2022-08-19T05:01:34.087Z,62.88
2022-08-19T05:04:02.474Z,65.30
2022-08-19T05:06:29.938Z,62.42
2022-08-19T05:08:57.027Z,63.88
2022-08-19T05:11:26.833Z,64.13
2022-08-19T05:13:53.608Z,62.85
2022-08-19T05:16:22.181Z,67.57
2022-08-19T05:19:07.430Z,66.43
2022-08-19T05:21:53.369Z,64.38
2022-08-19T05:24:21.204Z,63.88
2022-08-19T05:26:49.214Z,64.60
2022-08-19T05:29:19.665Z,63.40
2022-08-19T05:31:52.539Z,63.30
2022-08-19T05:34:25.465Z,63.25
2022-08-19T05:36:57.915Z,60.78
2022-08-19T05:39:28.009Z,61.78
2022-08-19T05:42:00.279Z,61.55
2022-08-19T05:44:32.324Z,60.58
2022-08-19T05:47:03.693Z,57.17
2022-08-19T05:51:57.180Z,58.60
2022-08-19T05:54:24.229Z,58.08
2022-08-19T05:56:52.686Z,57.40
2022-08-19T05:59:22.267Z,58.13
2022-08-19T06:01:52.851Z,55.38
2022-08-19T06:04:20.803Z,56.72
2022-08-19T06:06:51.194Z,57.40
2022-08-19T06:09:18.024Z,55.17
2022-08-19T06:11:50.889Z,53.92
2022-08-19T06:14:21.913Z,56.80
2022-08-19T06:16:54.452Z,51.28
2022-08-19T06:19:23.137Z,52.42
2022-08-19T06:21:51.733Z,53.17
2022-08-19T06:24:21.610Z,50.85
2022-08-19T06:26:49.561Z,49.45
2022-08-19T06:29:23.824Z,50.78
2022-08-19T06:31:53.762Z,46.85
2022-08-19T06:34:20.430Z,44.95
2022-08-19T06:36:49.887Z,43.72
2022-08-19T06:39:19.993Z,42.55
2022-08-19T06:41:52.494Z,43.53
2022-08-19T06:44:21.262Z,41.60
2022-08-19T06:46:53.627Z,41.28
2022-08-19T06:49:22.858Z,39.63
2022-08-19T06:51:50.371Z,39.88
2022-08-19T06:54:19.990Z,38.85
2022-08-19T06:56:47.202Z,37.92
2022-08-19T06:59:16.035Z,37.67
2022-08-19T07:01:48.461Z,36.40
2022-08-19T07:04:19.022Z,34.63
2022-08-19T07:06:46.178Z,34.65
2022-08-19T07:09:21.857Z,32.50
2022-08-19T07:11:53.404Z,31.05
2022-08-19T07:14:21.923Z,30.50
2022-08-19T07:16:50.442Z,31.88
2022-08-19T07:19:19.300Z,30.85
2022-08-19T07:21:49.093Z,30.70
2022-08-19T07:24:17.882Z,31.20
2022-08-19T07:26:44.898Z,31.52
2022-08-19T07:29:12.628Z,30.25
2022-08-19T07:31:40.394Z,30.08
2022-08-19T07:34:14.281Z,31.25
2022-08-19T07:36:42.829Z,31.15
2022-08-19T07:39:19.712Z,36.35
2022-08-19T07:41:47.408Z,37.33
2022-08-19T07:44:14.930Z,39.55
2022-08-19T07:46:46.479Z,40.58
2022-08-19T07:49:19.937Z,40.35
2022-08-19T07:51:48.908Z,42.67
2022-08-19T07:54:15.520Z,42.70
2022-08-19T07:56:42.153Z,45.63
2022-08-19T07:59:10.087Z,46.22
2022-08-19T08:01:42.033Z,45.22
2022-08-19T08:04:27.311Z,44.45
2022-08-19T08:07:12.750Z,42.88
2022-08-19T08:09:42.752Z,42.83
2022-08-19T08:12:33.489Z,41.78
2022-08-19T08:15:03.077Z,42.30
2022-08-19T08:17:48.561Z,43.78
2022-08-19T08:20:18.009Z,46.97
2022-08-19T08:23:06.995Z,45.85
2022-08-19T08:25:34.546Z,42.47
2022-08-19T08:28:02.751Z,44.80
2022-08-19T08:30:31.296Z,43.13
2022-08-19T08:32:59.732Z,46.03
2022-08-19T08:35:26.402Z,46.08
2022-08-19T08:37:55.394Z,43.67
2022-08-19T08:40:57.557Z,44.47
2022-08-19T08:43:32.376Z,40.15
2022-08-19T08:46:06.753Z,43.40
2022-08-19T08:48:56.542Z,44.13
2022-08-19T08:51:45.012Z,44.35
2022-08-19T08:54:15.901Z,40.60
2022-08-19T08:56:43.886Z,42.45
2022-08-19T08:59:22.786Z,40.28
2022-08-19T09:01:49.733Z,39.58
2022-08-19T09:04:16.901Z,39.38
2022-08-19T09:07:18.147Z,37.00
2022-08-19T09:10:05.517Z,35.42
2022-08-19T09:12:42.930Z,33.10
2022-08-19T09:15:12.045Z,31.85
2022-08-19T09:17:39.499Z,27.58
2022-08-19T09:20:24.263Z,27.40
2022-08-19T09:22:52.916Z,24.98
2022-08-19T09:25:26.746Z,23.20
2022-08-19T09:28:02.719Z,21.83
2022-08-19T09:30:35.579Z,20.02
2022-08-19T09:33:02.171Z,22.63
2022-08-19T09:35:30.021Z,20.67
2022-08-19T09:37:59.798Z,22.23
2022-08-19T09:40:30.034Z,22.50
2022-08-19T09:42:58.653Z,21.85
2022-08-19T09:45:25.234Z,23.17
2022-08-19T09:47:54.114Z,20.38
2022-08-19T09:50:22.971Z,19.70
2022-08-19T09:52:54.177Z,20.77
2022-08-19T09:55:31.327Z,22.65
2022-08-19T09:58:01.015Z,19.38
2022-08-19T10:00:27.658Z,18.15
2022-08-19T10:02:54.205Z,19.15
2022-08-19T10:05:38.974Z,18.00
2022-08-19T10:08:13.011Z,18.05
2022-08-19T10:10:44.041Z,16.17
2022-08-19T10:13:13.775Z,13.75
2022-08-19T10:15:47.521Z,15.70
2022-08-19T10:18:15.539Z,13.73
2022-08-19T10:20:42.754Z,15.07
2022-08-19T10:23:10.367Z,14.13
2022-08-19T10:25:36.983Z,13.23
2022-08-19T10:28:06.791Z,13.05
2022-08-19T10:30:37.335Z,13.40
2022-08-19T10:33:10.792Z,14.50
2022-08-19T10:35:56.620Z,13.23
2022-08-19T10:38:31.835Z,13.13
2022-08-19T10:41:11.316Z,11.85
2022-08-19T10:43:39.182Z,10.52
2022-08-19T10:46:09.617Z,11.25
2022-08-19T10:48:41.911Z,11.70
2022-08-19T10:51:27.380Z,10.65
2022-08-19T10:53:56.265Z,11.45
2022-08-19T10:56:41.748Z,9.55
2022-08-19T10:59:08.420Z,10.63
2022-08-19T11:01:35.943Z,9.85
2022-08-19T11:04:04.095Z,10.55
2022-08-19T11:06:32.931Z,9.13
2022-08-19T11:09:00.839Z,11.15
2022-08-19T11:11:29.281Z,9.68
2022-08-19T11:13:56.143Z,10.43
2022-08-19T11:16:26.635Z,11.10
2022-08-19T11:18:55.787Z,9.93
2022-08-19T11:21:28.451Z,11.60
2022-08-19T11:23:57.914Z,10.65
2022-08-19T11:26:25.175Z,9.90
2022-08-19T11:28:55.408Z,13.18
2022-08-19T11:31:28.885Z,12.80
2022-08-19T11:34:00.568Z,11.98
2022-08-19T11:36:27.501Z,10.35
2022-08-19T11:38:54.279Z,9.65
2022-08-19T11:41:23.771Z,9.07
2022-08-19T11:43:55.982Z,8.60
2022-08-19T11:46:24.698Z,8.80
2022-08-19T11:48:51.585Z,8.13
2022-08-19T11:51:22.465Z,8.40
2022-08-19T11:53:50.433Z,9.60
2022-08-19T11:56:17.144Z,8.57
2022-08-19T11:58:44.587Z,8.85
2022-08-19T12:01:16.943Z,6.65
2022-08-19T12:03:48.185Z,7.03
2022-08-19T12:06:17.482Z,6.40
2022-08-19T12:08:45.333Z,6.95
2022-08-19T12:11:14.552Z,6.45
2022-08-19T12:13:42.082Z,6.32
2022-08-19T12:16:14.111Z,7.43
2022-08-19T12:18:43.685Z,7.65
2022-08-19T12:21:11.924Z,5.75
2022-08-19T12:23:38.684Z,5.90
2022-08-19T12:26:05.381Z,7.03
2022-08-19T12:28:32.309Z,7.70
2022-08-19T12:30:59.059Z,6.63
2022-08-19T12:33:28.631Z,6.38
2022-08-19T12:35:55.997Z,6.40
2022-08-19T12:38:25.720Z,6.20
2022-08-19T12:40:59.622Z,5.85
2022-08-19T12:43:27.619Z,5.15
2022-08-19T12:45:54.221Z,5.18
2022-08-19T12:48:33.544Z,6.03
2022-08-19T12:51:02.888Z,5.72
2022-08-19T12:53:29.948Z,6.00
2022-08-19T12:55:58.130Z,5.72
2022-08-19T12:58:27.364Z,5.10
2022-08-19T13:00:54.425Z,5.43
2022-08-19T13:03:23.766Z,5.55
2022-08-19T13:05:51.753Z,6.95
2022-08-19T13:08:19.366Z,4.90
2022-08-19T13:10:46.294Z,4.90
2022-08-19T13:13:15.420Z,4.53
2022-08-19T13:15:42.943Z,4.40
2022-08-19T13:18:11.881Z,4.55
2022-08-19T13:20:39.430Z,4.30
2022-08-19T13:23:06.355Z,4.57
2022-08-19T13:25:33.202Z,4.07
2022-08-19T13:28:00.472Z,4.55
2022-08-19T13:30:45.842Z,4.53
2022-08-19T13:33:12.394Z,4.75
2022-08-19T13:35:40.506Z,4.32
2022-08-19T13:38:11.800Z,4.75
2022-08-19T13:40:40.056Z,4.60
2022-08-19T13:43:17.593Z,4.40
2022-08-19T13:45:56.396Z,4.47
2022-08-19T13:48:24.644Z,3.92
2022-08-19T13:50:51.350Z,4.10
2022-08-19T13:53:18.367Z,3.70
2022-08-19T13:55:45.174Z,3.90
2022-08-19T13:58:12.755Z,3.95
2022-08-19T14:00:44.837Z,4.10
2022-08-19T14:03:12.037Z,4.13
2022-08-19T14:05:38.995Z,4.07
2022-08-19T14:08:05.809Z,3.95
2022-08-19T14:10:32.890Z,3.67
2022-08-19T14:13:02.238Z,4.00
2022-08-19T14:15:29.357Z,3.90
2022-08-19T14:17:56.497Z,3.83
2022-08-19T14:20:26.198Z,5.05
2022-08-19T14:22:53.763Z,4.53
2022-08-19T14:25:22.999Z,5.57
2022-08-19T14:27:49.863Z,3.92
2022-08-19T14:30:27.723Z,4.30
2022-08-19T14:32:56.100Z,3.83
2022-08-19T14:35:23.019Z,3.25
2022-08-19T14:37:50.628Z,3.55
2022-08-19T14:40:21.533Z,3.47
2022-08-19T14:42:49.366Z,3.45
2022-08-19T14:45:16.012Z,4.18
2022-08-19T14:47:42.919Z,3.65
2022-08-19T14:50:18.318Z,3.85
2022-08-19T14:52:46.517Z,3.58
2022-08-19T14:55:13.065Z,3.88
2022-08-19T14:57:41.874Z,4.20
2022-08-19T15:00:13.834Z,4.00
2022-08-19T15:02:49.263Z,4.32
2022-08-19T15:05:16.194Z,4.78
2022-08-19T15:07:43.009Z,4.45
2022-08-19T15:10:11.769Z,4.40
2022-08-19T15:12:43.504Z,5.00
2022-08-19T15:15:15.396Z,4.53
2022-08-19T15:17:46.210Z,4.68
2022-08-19T15:22:46.701Z,5.20
2022-08-19T15:25:15.293Z,4.68
2022-08-19T15:27:41.860Z,4.80
2022-08-19T15:30:09.605Z,4.60
2022-08-19T15:32:37.169Z,4.10
2022-08-19T15:35:05.921Z,5.22
2022-08-19T15:37:37.253Z,5.22
2022-08-19T15:40:06.454Z,4.93
2022-08-19T15:42:33.873Z,5.72
2022-08-19T15:45:01.973Z,4.40
2022-08-19T15:47:35.434Z,5.20
2022-08-19T15:50:11.072Z,5.70
2022-08-19T15:52:49.998Z,5.57
2022-08-19T15:55:33.065Z,5.35
2022-08-19T15:58:29.286Z,7.00
2022-08-19T16:01:21.340Z,5.80
2022-08-19T16:04:14.916Z,5.97
2022-08-19T16:06:48.890Z,5.55
2022-08-19T16:09:16.722Z,7.18
2022-08-19T16:11:46.323Z,5.60
2022-08-19T16:14:18.485Z,6.47
2022-08-19T16:16:47.083Z,6.28
2022-08-19T16:19:18.463Z,7.05
2022-08-19T16:24:14.681Z,6.80
2022-08-19T16:26:42.781Z,6.95
2022-08-19T16:29:12.007Z,6.85
2022-08-19T16:31:41.331Z,7.20
2022-08-19T16:34:08.081Z,7.13
2022-08-19T16:36:34.648Z,7.38
2022-08-19T16:39:01.294Z,8.10
2022-08-19T16:41:29.034Z,8.23
2022-08-19T16:43:55.913Z,8.07
2022-08-19T16:46:26.870Z,7.57
2022-08-19T16:51:22.563Z,8.05
2022-08-19T16:53:49.353Z,8.70
2022-08-19T16:56:15.939Z,8.70
2022-08-19T16:58:43.170Z,8.13
2022-08-19T17:01:10.725Z,7.15
2022-08-19T17:03:40.062Z,7.20
2022-08-19T17:06:17.789Z,7.30
2022-08-19T17:08:50.734Z,7.10
2022-08-19T17:11:19.374Z,7.07
2022-08-19T17:13:48.057Z,6.63
2022-08-19T17:16:19.840Z,6.55
2022-08-19T17:18:46.430Z,6.95
2022-08-19T17:21:13.070Z,6.35
2022-08-19T17:23:43.709Z,6.97
2022-08-19T17:26:17.055Z,6.97
2022-08-19T17:28:49.582Z,8.45
2022-08-19T17:31:17.340Z,7.82
2022-08-19T17:33:48.203Z,8.00
2022-08-19T17:36:16.633Z,5.07
2022-08-19T17:38:44.106Z,4.78
2022-08-19T17:41:10.752Z,4.50
2022-08-19T17:43:42.850Z,8.15
2022-08-19T17:46:13.422Z,9.05
2022-08-19T17:48:51.446Z,8.50
2022-08-19T17:51:32.875Z,8.25
2022-08-19T17:54:00.352Z,8.73
2022-08-19T17:56:28.642Z,8.10
2022-08-19T17:59:00.095Z,7.28
2022-08-19T18:01:34.146Z,6.78
2022-08-19T18:04:16.917Z,7.20
2022-08-19T18:06:46.068Z,6.53
2022-08-19T18:09:28.642Z,5.43
2022-08-19T18:12:06.508Z,6.10
2022-08-19T18:14:36.870Z,6.35
2022-08-19T18:17:09.996Z,5.23
2022-08-19T18:19:40.797Z,6.05
2022-08-19T18:22:12.599Z,5.20
2022-08-19T18:24:41.662Z,5.28
2022-08-19T18:27:08.498Z,5.20
2022-08-19T18:29:38.048Z,3.70
2022-08-19T18:32:05.685Z,3.55
2022-08-19T18:34:32.524Z,3.78
2022-08-19T18:36:59.303Z,3.10
2022-08-19T18:39:45.262Z,3.20
2022-08-19T18:42:34.759Z,3.00
2022-08-19T18:45:21.182Z,3.00
2022-08-19T18:48:06.082Z,2.45
2022-08-19T18:50:34.346Z,3.10
2022-08-19T18:53:01.826Z,2.75
2022-08-19T18:55:29.237Z,2.45
2022-08-19T18:57:56.144Z,3.15
2022-08-19T19:00:23.179Z,3.10
2022-08-19T19:02:50.122Z,3.33
2022-08-19T19:05:16.877Z,3.13
2022-08-19T19:07:43.907Z,3.70
2022-08-19T19:10:10.567Z,3.30
2022-08-19T19:12:41.239Z,3.00
2022-08-19T19:15:08.532Z,2.90
2022-08-19T19:17:35.262Z,3.30
2022-08-19T19:20:02.138Z,3.13
2022-08-19T19:22:28.830Z,3.63
2022-08-19T19:24:55.605Z,3.13
2022-08-19T19:27:22.407Z,3.00
2022-08-19T19:29:52.320Z,3.45
2022-08-19T19:32:24.858Z,3.50
2022-08-19T19:34:52.064Z,3.05
2022-08-19T19:37:20.146Z,3.80
2022-08-19T19:39:48.194Z,3.60
2022-08-19T19:42:21.301Z,3.30
2022-08-19T19:44:52.992Z,3.60
2022-08-19T19:47:21.472Z,3.75
2022-08-19T19:52:39.525Z,3.17
2022-08-19T19:55:09.456Z,3.28
2022-08-19T19:57:40.013Z,3.40
2022-08-19T20:00:09.105Z,3.50
2022-08-19T20:02:35.943Z,2.72
2022-08-19T20:05:02.821Z,3.30
2022-08-19T20:07:48.023Z,3.28
2022-08-19T20:10:15.176Z,3.30
2022-08-19T20:12:42.018Z,3.85
2022-08-19T20:15:10.282Z,3.92
2022-08-19T20:17:42.655Z,3.80
2022-08-19T20:20:14.986Z,3.60
2022-08-19T20:22:43.183Z,3.80
2022-08-19T20:25:12.075Z,3.80
2022-08-19T20:27:40.098Z,4.03
2022-08-19T20:30:09.183Z,3.65
2022-08-19T20:32:42.748Z,3.47
2022-08-19T20:35:11.044Z,4.22
2022-08-19T20:37:38.639Z,3.50
2022-08-19T20:40:06.992Z,3.20
2022-08-19T20:42:33.773Z,3.05
2022-08-19T20:45:02.516Z,3.40
2022-08-19T20:47:31.308Z,3.08
2022-08-19T20:49:58.377Z,2.90
2022-08-19T20:52:25.109Z,3.22
2022-08-19T20:54:51.887Z,3.92
2022-08-19T20:57:18.608Z,3.90
2022-08-19T20:59:46.060Z,4.18
2022-08-19T21:02:12.797Z,4.78
2022-08-19T21:04:39.632Z,5.20
2022-08-19T21:07:07.949Z,4.78
2022-08-19T21:09:36.055Z,4.60
2022-08-19T21:12:09.992Z,5.85
2022-08-19T21:14:41.809Z,5.15
2022-08-19T21:17:09.196Z,5.22
2022-08-19T21:19:36.365Z,5.78
2022-08-19T21:22:03.326Z,5.57
2022-08-19T21:24:30.253Z,5.40
2022-08-19T21:26:58.812Z,6.38
2022-08-19T21:29:25.603Z,6.18
2022-08-19T21:31:52.538Z,6.70
2022-08-19T21:34:19.358Z,6.93
2022-08-19T21:36:46.114Z,7.85
2022-08-19T21:39:12.918Z,8.77
2022-08-19T21:41:43.453Z,8.15
2022-08-19T21:44:10.781Z,8.65
2022-08-19T21:46:37.724Z,9.80
2022-08-19T21:49:06.887Z,9.30
2022-08-19T21:51:33.792Z,10.07
2022-08-19T21:54:00.704Z,10.30
2022-08-19T21:56:27.517Z,10.38
2022-08-19T21:58:56.570Z,11.00
2022-08-19T22:01:23.754Z,10.35
2022-08-19T22:03:50.410Z,10.90
2022-08-19T22:06:17.707Z,11.27
2022-08-19T22:08:44.801Z,12.50
2022-08-19T22:11:12.058Z,11.77
2022-08-19T22:13:40.602Z,11.60
2022-08-19T22:16:08.353Z,12.00
2022-08-19T22:18:35.321Z,11.68
2022-08-19T22:21:02.404Z,12.50
2022-08-19T22:23:29.067Z,13.32
2022-08-19T22:25:55.666Z,12.60
2022-08-19T22:28:27.619Z,12.40
2022-08-19T22:30:55.850Z,11.88
2022-08-19T22:33:23.379Z,12.25
2022-08-19T22:35:52.053Z,12.32
2022-08-19T22:38:19.318Z,11.57
2022-08-19T22:40:48.564Z,12.65
2022-08-19T22:43:18.047Z,11.50
2022-08-19T22:45:46.241Z,12.45
2022-08-19T22:48:14.976Z,12.60
2022-08-19T22:50:43.888Z,12.07
2022-08-19T22:53:10.727Z,12.73
2022-08-19T22:55:38.350Z,12.35
2022-08-19T22:58:05.541Z,11.93
2022-08-19T23:00:32.660Z,11.38
2022-08-19T23:02:59.374Z,11.52
2022-08-19T23:05:28.560Z,11.32
2022-08-19T23:07:57.899Z,11.68
2022-08-19T23:10:27.335Z,10.95
2022-08-19T23:12:56.973Z,10.35
2022-08-19T23:15:26.280Z,10.70
2022-08-19T23:17:54.165Z,9.90
2022-08-19T23:20:22.534Z,9.75
2022-08-19T23:22:50.822Z,8.85
2022-08-19T23:25:22.406Z,9.10
2022-08-19T23:28:07.839Z,9.95
2022-08-19T23:30:38.411Z,8.63
2022-08-19T23:33:12.914Z,9.48
2022-08-19T23:35:40.984Z,9.68
2022-08-19T23:38:10.295Z,9.35
2022-08-19T23:40:38.414Z,10.10
2022-08-19T23:43:08.190Z,10.13
2022-08-19T23:48:07.869Z,10.32
2022-08-19T23:50:34.746Z,9.93
2022-08-19T23:53:01.878Z,10.52
2022-08-19T23:55:32.135Z,9.88
2022-08-19T23:57:59.617Z,11.88
